Time;durP1;ratioP1;P1;durP2;ratioP2;P2;SDS_P1;SDS_P2;PMS_P1;PMS_P2;Temp;Humidity;BMP_temperature;BMP_pressure;BME280_temperature;BME280_humidity;BME280_pressure;Samples;Min_cycle;Max_cycle;Signal;HPM_P1;HPM_P2
2022/01/10 22:24:31;;;;;;;23.02;11.75;;;;;;;-1.76;66.48;101628.16;5007418;28;106109;-67
2022/01/10 22:26:56;;;;;;;25.50;11.98;;;;;;;-1.73;66.92;101630.63;5005566;28;105831;-64
2022/01/10 22:29:22;;;;;;;27.13;14.63;;;;;;;-1.71;67.23;101628.84;5005179;28;106178;-67
2022/01/10 22:31:47;;;;;;;25.50;12.85;;;;;;;-1.63;67.41;101632.91;5004503;28;105803;-64
2022/01/10 22:34:12;;;;;;;23.60;12.65;;;;;;;-1.56;67.35;101634.41;5004341;28;106142;-64
2022/01/10 22:36:38;;;;;;;26.10;13.07;;;;;;;-1.51;67.65;101637.69;5004768;28;106155;-65
2022/01/10 22:39:03;;;;;;;33.15;15.30;;;;;;;-1.42;68.01;101641.72;5004925;28;106167;-64
2022/01/10 22:41:29;;;;;;;27.33;13.55;;;;;;;-1.39;67.85;101637.25;5004589;28;106001;-64
2022/01/10 22:43:56;;;;;;;30.75;14.88;;;;;;;-1.33;67.73;101648.38;5004251;28;106149;-67
2022/01/10 22:46:21;;;;;;;31.85;14.82;;;;;;;-1.27;68.01;101649.00;5005100;28;106063;-64
2022/01/10 22:48:47;;;;;;;23.63;13.35;;;;;;;-1.20;67.65;101649.63;5004655;28;106114;-64
2022/01/10 22:51:12;;;;;;;30.13;13.85;;;;;;;-1.16;67.82;101651.22;5004554;28;105907;-64
2022/01/10 22:53:37;;;;;;;33.25;15.13;;;;;;;-1.12;67.92;101647.56;5004567;28;105786;-63
2022/01/10 22:56:03;;;;;;;27.27;14.18;;;;;;;-1.08;67.40;101654.38;5005047;28;105886;-64
2022/01/10 22:58:30;;;;;;;30.23;15.77;;;;;;;-1.03;67.39;101662.03;5004782;28;106004;-65
2022/01/10 23:00:55;;;;;;;33.72;15.30;;;;;;;-0.99;68.21;101647.94;5004191;28;106704;-64
2022/01/10 23:03:20;;;;;;;35.10;17.17;;;;;;;-0.95;68.07;101653.91;5003949;28;106794;-64
2022/01/10 23:05:46;;;;;;;24.17;11.68;;;;;;;-0.93;67.67;101663.41;5005196;28;106598;-63
2022/01/10 23:08:12;;;;;;;31.58;13.90;;;;;;;-0.91;67.82;101665.97;5004291;28;106304;-67
2022/01/10 23:10:38;;;;;;;36.38;16.65;;;;;;;-0.93;67.41;101658.19;5004135;28;106036;-65
2022/01/10 23:13:03;;;;;;;30.58;15.75;;;;;;;-0.92;67.28;101670.31;5004068;28;105976;-65
2022/01/10 23:15:28;;;;;;;35.45;16.40;;;;;;;-0.90;67.82;101667.69;5005047;28;105831;-66
2022/01/10 23:17:54;;;;;;;32.20;16.33;;;;;;;-0.90;67.83;101668.50;5004033;28;106649;-65
2022/01/10 23:20:20;;;;;;;28.45;12.82;;;;;;;-0.89;67.97;101669.34;5003932;28;106001;-64
2022/01/10 23:22:45;;;;;;;26.23;13.02;;;;;;;-0.88;67.62;101671.06;5003383;28;106277;-64
2022/01/10 23:25:12;;;;;;;26.25;13.25;;;;;;;-0.87;67.76;101673.63;5004864;28;106470;-63
2022/01/10 23:27:38;;;;;;;30.13;12.90;;;;;;;-0.87;67.50;101678.00;5004277;28;106277;-64
2022/01/10 23:30:06;;;;;;;30.08;14.20;;;;;;;-0.90;67.21;101684.22;5003530;28;106667;-63
2022/01/10 23:32:31;;;;;;;32.83;14.15;;;;;;;-0.91;67.22;101687.72;5003843;28;105984;-64
2022/01/10 23:34:57;;;;;;;31.45;15.40;;;;;;;-0.92;67.27;101690.41;4996203;28;106007;-63
2022/01/10 23:37:22;;;;;;;24.75;12.98;;;;;;;-0.94;67.74;101697.47;4990957;28;106312;-68
2022/01/10 23:39:47;;;;;;;26.42;14.02;;;;;;;-0.95;67.53;101696.59;4990532;28;106718;-67
2022/01/10 23:42:13;;;;;;;30.02;13.40;;;;;;;-0.97;67.10;101687.13;4990465;28;106063;-65
2022/01/10 23:44:38;;;;;;;26.67;12.43;;;;;;;-0.97;67.11;101694.97;4991182;28;106043;-65
2022/01/10 23:47:06;;;;;;;25.13;12.02;;;;;;;-0.98;67.37;101695.91;4990560;28;105916;-64
2022/01/10 23:49:32;;;;;;;21.42;10.13;;;;;;;-1.01;67.45;101694.25;4990243;28;105892;-65
2022/01/10 23:51:57;;;;;;;24.42;11.27;;;;;;;-1.04;67.03;101697.81;4990397;28;105934;-65
2022/01/10 23:54:23;;;;;;;17.38;9.40;;;;;;;-1.05;67.28;101703.97;4991054;28;105776;-65
2022/01/10 23:56:48;;;;;;;15.77;8.70;;;;;;;-1.05;67.27;101697.91;4991244;28;106212;-64
2022/01/10 23:59:13;;;;;;;22.08;10.52;;;;;;;-1.06;66.68;101704.88;4990863;28;107023;-63
